createdAt,value
2017-10-26T20:58:24.394Z,7.30
2017-10-26T21:00:58.137Z,7.93
2017-10-26T21:03:30.517Z,7.18
2017-10-26T21:06:03.775Z,7.00
2017-10-26T21:08:50.445Z,7.47
2017-10-26T21:11:22.967Z,6.85
2017-10-26T21:14:04.553Z,7.05
2017-10-26T21:16:31.192Z,7.55
2017-10-26T21:18:57.870Z,6.95
2017-10-26T21:21:24.499Z,7.30
2017-10-26T21:23:51.311Z,7.62
2017-10-26T21:26:18.018Z,7.68
2017-10-26T21:28:44.664Z,7.37
2017-10-26T21:31:11.331Z,9.40
2017-10-26T21:33:43.627Z,9.00
2017-10-26T21:36:10.428Z,14.98
2017-10-26T21:38:37.070Z,13.62
2017-10-26T21:41:03.746Z,12.73
2017-10-26T21:43:30.390Z,10.93
2017-10-26T21:45:57.043Z,10.25
2017-10-26T21:48:23.686Z,10.15
2017-10-26T21:50:51.076Z,9.93
2017-10-26T21:53:17.726Z,10.07
2017-10-26T21:55:44.374Z,9.07
2017-10-26T21:58:11.023Z,9.57
2017-10-26T22:00:37.651Z,8.18
2017-10-26T22:03:04.298Z,10.02
2017-10-26T22:05:30.925Z,9.20
2017-10-26T22:07:57.600Z,9.95
2017-10-26T22:10:24.271Z,9.25
2017-10-26T22:12:50.908Z,8.98
2017-10-26T22:15:17.571Z,8.23
2017-10-26T22:17:44.227Z,7.78
2017-10-26T22:20:11.230Z,6.85
2017-10-26T22:22:37.858Z,6.85
2017-10-26T22:25:04.516Z,5.93
2017-10-26T22:27:31.169Z,6.00
2017-10-26T22:29:57.795Z,6.07
2017-10-26T22:32:24.457Z,5.43
2017-10-26T22:34:51.094Z,5.28
2017-10-26T22:37:17.833Z,5.30
2017-10-26T22:39:44.483Z,5.10
2017-10-26T22:42:11.124Z,5.57
2017-10-26T22:44:37.762Z,4.80
2017-10-26T22:47:04.392Z,4.87
2017-10-26T22:49:31.030Z,4.75
2017-10-26T22:51:57.662Z,4.90
2017-10-26T22:54:24.695Z,4.80
2017-10-26T22:56:51.324Z,4.85
2017-10-26T22:59:17.950Z,4.50
2017-10-26T23:01:44.597Z,4.53
2017-10-26T23:04:11.244Z,4.72
2017-10-26T23:06:37.891Z,4.90
2017-10-26T23:09:04.521Z,4.30
2017-10-26T23:11:31.167Z,4.60
2017-10-26T23:13:57.870Z,4.68
2017-10-26T23:16:24.509Z,4.30
2017-10-26T23:18:51.174Z,4.30
2017-10-26T23:21:17.822Z,4.32
2017-10-26T23:23:44.485Z,4.43
2017-10-26T23:26:11.113Z,4.28
2017-10-26T23:28:37.758Z,4.22
2017-10-26T23:31:04.419Z,4.60
2017-10-26T23:33:31.117Z,4.18
2017-10-26T23:35:57.756Z,4.18
2017-10-26T23:38:24.395Z,4.55
2017-10-26T23:40:51.035Z,3.90
2017-10-26T23:43:17.675Z,4.65
2017-10-26T23:45:44.339Z,4.12
2017-10-26T23:48:10.983Z,4.00
2017-10-26T23:50:37.638Z,4.35
2017-10-26T23:53:04.594Z,4.40
2017-10-26T23:55:31.223Z,3.97
2017-10-26T23:57:58.254Z,4.00
